Terminal Aerodrome Forecast
Issued by NWS

Home | Current Version | Previous Version | Text Only | Print | Product List | Glossary On
Versions: 1 2 3 4 5 6 7 8 9 10 11 12 13 14 15 16 17 18 19 20 21 22 23 24
808
FTUS41 KCAR 290538
TAFFVE
TAF
KFVE 290538Z 2906/3006 VRB03KT P6SM FEW050
      TEMPO 2909/2912 2SM BR SCT002
     FM291200 VRB03KT P6SM FEW250=

USA.gov is the U.S. government's official web portal to all federal, state and local government web resources and services.